sensor_id;sensor_type;location;lat;lon;timestamp;P1;durP1;ratioP1;P2;durP2;ratioP2
25125;SDS011;13106;50.808;5.670;2023-02-14T00:00:06;94.90;;;27.80;;
25125;SDS011;13106;50.808;5.670;2023-02-14T00:02:32;86.15;;;26.17;;
25125;SDS011;13106;50.808;5.670;2023-02-14T00:04:58;120.05;;;32.05;;
25125;SDS011;13106;50.808;5.670;2023-02-14T00:07:24;123.90;;;33.17;;
25125;SDS011;13106;50.808;5.670;2023-02-14T00:09:50;129.10;;;31.88;;
25125;SDS011;13106;50.808;5.670;2023-02-14T00:12:16;130.00;;;34.33;;
25125;SDS011;13106;50.808;5.670;2023-02-14T00:14:42;158.82;;;33.88;;
25125;SDS011;13106;50.808;5.670;2023-02-14T00:17:27;154.68;;;34.97;;
25125;SDS011;13106;50.808;5.670;2023-02-14T00:19:53;142.70;;;36.10;;
25125;SDS011;13106;50.808;5.670;2023-02-14T00:22:19;138.80;;;36.88;;
25125;SDS011;13106;50.808;5.670;2023-02-14T00:24:45;175.00;;;35.88;;
25125;SDS011;13106;50.808;5.670;2023-02-14T00:27:11;135.50;;;36.47;;
25125;SDS011;13106;50.808;5.670;2023-02-14T00:29:37;146.13;;;35.50;;
25125;SDS011;13106;50.808;5.670;2023-02-14T00:32:03;150.07;;;34.33;;
25125;SDS011;13106;50.808;5.670;2023-02-14T00:34:29;151.23;;;34.88;;
25125;SDS011;13106;50.808;5.670;2023-02-14T00:36:57;112.97;;;32.55;;
25125;SDS011;13106;50.808;5.670;2023-02-14T00:39:24;117.82;;;33.58;;
25125;SDS011;13106;50.808;5.670;2023-02-14T00:41:50;133.18;;;34.10;;
25125;SDS011;13106;50.808;5.670;2023-02-14T00:44:16;136.60;;;34.05;;
25125;SDS011;13106;50.808;5.670;2023-02-14T00:46:42;170.27;;;35.25;;
25125;SDS011;13106;50.808;5.670;2023-02-14T00:49:08;134.88;;;31.65;;
25125;SDS011;13106;50.808;5.670;2023-02-14T00:51:34;124.90;;;32.58;;
25125;SDS011;13106;50.808;5.670;2023-02-14T00:54:01;119.28;;;33.63;;
25125;SDS011;13106;50.808;5.670;2023-02-14T00:56:27;117.80;;;31.05;;
25125;SDS011;13106;50.808;5.670;2023-02-14T00:58:53;93.80;;;29.17;;
25125;SDS011;13106;50.808;5.670;2023-02-14T01:01:21;114.65;;;30.90;;
25125;SDS011;13106;50.808;5.670;2023-02-14T01:03:47;108.35;;;28.75;;
25125;SDS011;13106;50.808;5.670;2023-02-14T01:06:13;103.05;;;32.17;;
25125;SDS011;13106;50.808;5.670;2023-02-14T01:08:39;117.97;;;30.75;;
25125;SDS011;13106;50.808;5.670;2023-02-14T01:11:09;98.05;;;28.10;;
25125;SDS011;13106;50.808;5.670;2023-02-14T01:13:36;96.47;;;28.17;;
25125;SDS011;13106;50.808;5.670;2023-02-14T01:16:06;140.70;;;32.65;;
25125;SDS011;13106;50.808;5.670;2023-02-14T01:21:08;98.32;;;28.00;;
25125;SDS011;13106;50.808;5.670;2023-02-14T01:23:34;107.20;;;30.10;;
25125;SDS011;13106;50.808;5.670;2023-02-14T01:26:03;100.43;;;28.05;;
25125;SDS011;13106;50.808;5.670;2023-02-14T01:28:30;107.97;;;30.37;;
25125;SDS011;13106;50.808;5.670;2023-02-14T01:30:55;96.45;;;29.38;;
25125;SDS011;13106;50.808;5.670;2023-02-14T01:33:21;103.97;;;29.83;;
25125;SDS011;13106;50.808;5.670;2023-02-14T01:35:48;119.25;;;29.15;;
25125;SDS011;13106;50.808;5.670;2023-02-14T01:38:14;80.35;;;29.50;;
25125;SDS011;13106;50.808;5.670;2023-02-14T01:40:43;122.18;;;28.13;;
25125;SDS011;13106;50.808;5.670;2023-02-14T01:43:15;108.55;;;32.78;;
25125;SDS011;13106;50.808;5.670;2023-02-14T01:45:41;98.28;;;31.58;;
25125;SDS011;13106;50.808;5.670;2023-02-14T01:48:08;103.75;;;28.85;;
25125;SDS011;13106;50.808;5.670;2023-02-14T01:50:35;89.32;;;26.00;;
25125;SDS011;13106;50.808;5.670;2023-02-14T01:53:07;123.82;;;30.63;;
25125;SDS011;13106;50.808;5.670;2023-02-14T01:55:36;97.18;;;29.95;;
25125;SDS011;13106;50.808;5.670;2023-02-14T01:58:05;101.07;;;30.10;;
25125;SDS011;13106;50.808;5.670;2023-02-14T02:03:18;91.72;;;28.48;;
25125;SDS011;13106;50.808;5.670;2023-02-14T02:05:50;94.85;;;29.98;;
25125;SDS011;13106;50.808;5.670;2023-02-14T02:08:17;88.25;;;27.50;;
25125;SDS011;13106;50.808;5.670;2023-02-14T02:10:43;83.65;;;29.25;;
25125;SDS011;13106;50.808;5.670;2023-02-14T02:13:14;100.82;;;31.58;;
25125;SDS011;13106;50.808;5.670;2023-02-14T02:15:43;89.88;;;29.50;;
25125;SDS011;13106;50.808;5.670;2023-02-14T02:18:25;97.20;;;28.63;;
25125;SDS011;13106;50.808;5.670;2023-02-14T02:37:05;98.10;;;29.98;;
25125;SDS011;13106;50.808;5.670;2023-02-14T02:42:51;80.15;;;28.58;;
25125;SDS011;13106;50.808;5.670;2023-02-14T02:47:24;82.15;;;29.42;;
25125;SDS011;13106;50.808;5.670;2023-02-14T02:52:49;95.70;;;31.27;;
25125;SDS011;13106;50.808;5.670;2023-02-14T02:55:44;102.15;;;31.85;;
25125;SDS011;13106;50.808;5.670;2023-02-14T02:58:38;71.78;;;28.42;;
25125;SDS011;13106;50.808;5.670;2023-02-14T03:03:57;114.80;;;31.98;;
25125;SDS011;13106;50.808;5.670;2023-02-14T03:06:43;92.32;;;28.27;;
25125;SDS011;13106;50.808;5.670;2023-02-14T03:11:39;92.03;;;29.00;;
25125;SDS011;13106;50.808;5.670;2023-02-14T03:14:18;97.53;;;30.52;;
25125;SDS011;13106;50.808;5.670;2023-02-14T03:16:49;74.15;;;25.48;;
25125;SDS011;13106;50.808;5.670;2023-02-14T03:19:23;78.57;;;27.60;;
25125;SDS011;13106;50.808;5.670;2023-02-14T03:24:57;77.63;;;26.70;;
25125;SDS011;13106;50.808;5.670;2023-02-14T03:27:30;79.90;;;28.83;;
25125;SDS011;13106;50.808;5.670;2023-02-14T03:32:43;73.00;;;26.20;;
25125;SDS011;13106;50.808;5.670;2023-02-14T03:37:41;91.28;;;25.35;;
25125;SDS011;13106;50.808;5.670;2023-02-14T03:42:41;75.72;;;25.48;;
25125;SDS011;13106;50.808;5.670;2023-02-14T03:45:09;87.30;;;25.77;;
25125;SDS011;13106;50.808;5.670;2023-02-14T03:47:36;78.03;;;26.73;;
25125;SDS011;13106;50.808;5.670;2023-02-14T03:50:37;82.00;;;26.08;;
25125;SDS011;13106;50.808;5.670;2023-02-14T03:52:56;70.85;;;24.85;;
25125;SDS011;13106;50.808;5.670;2023-02-14T03:55:26;71.35;;;24.83;;
25125;SDS011;13106;50.808;5.670;2023-02-14T03:58:02;82.10;;;26.50;;
25125;SDS011;13106;50.808;5.670;2023-02-14T04:00:29;56.20;;;23.10;;
25125;SDS011;13106;50.808;5.670;2023-02-14T04:02:58;64.07;;;26.20;;
25125;SDS011;13106;50.808;5.670;2023-02-14T04:05:26;75.47;;;28.33;;
25125;SDS011;13106;50.808;5.670;2023-02-14T04:07:54;74.40;;;27.30;;
25125;SDS011;13106;50.808;5.670;2023-02-14T04:10:20;76.78;;;24.42;;
25125;SDS011;13106;50.808;5.670;2023-02-14T04:12:46;63.10;;;24.90;;
25125;SDS011;13106;50.808;5.670;2023-02-14T04:15:13;71.55;;;25.02;;
25125;SDS011;13106;50.808;5.670;2023-02-14T04:17:39;67.90;;;25.20;;
25125;SDS011;13106;50.808;5.670;2023-02-14T04:20:24;66.30;;;26.42;;
25125;SDS011;13106;50.808;5.670;2023-02-14T04:22:50;64.22;;;25.00;;
25125;SDS011;13106;50.808;5.670;2023-02-14T04:25:17;55.35;;;23.63;;
25125;SDS011;13106;50.808;5.670;2023-02-14T04:27:43;82.07;;;26.27;;
25125;SDS011;13106;50.808;5.670;2023-02-14T04:30:09;69.20;;;24.75;;
25125;SDS011;13106;50.808;5.670;2023-02-14T04:32:36;65.45;;;28.48;;
25125;SDS011;13106;50.808;5.670;2023-02-14T04:35:02;65.45;;;27.42;;
25125;SDS011;13106;50.808;5.670;2023-02-14T04:37:29;64.90;;;25.73;;
25125;SDS011;13106;50.808;5.670;2023-02-14T04:39:55;67.82;;;24.92;;
25125;SDS011;13106;50.808;5.670;2023-02-14T04:42:21;61.45;;;24.58;;
25125;SDS011;13106;50.808;5.670;2023-02-14T04:44:47;74.10;;;25.77;;
25125;SDS011;13106;50.808;5.670;2023-02-14T04:47:13;79.95;;;26.45;;
25125;SDS011;13106;50.808;5.670;2023-02-14T04:49:39;69.40;;;28.00;;
25125;SDS011;13106;50.808;5.670;2023-02-14T04:52:05;72.90;;;33.40;;
25125;SDS011;13106;50.808;5.670;2023-02-14T04:54:31;64.18;;;32.03;;
25125;SDS011;13106;50.808;5.670;2023-02-14T04:56:57;83.78;;;34.72;;
25125;SDS011;13106;50.808;5.670;2023-02-14T04:59:24;78.47;;;35.17;;
25125;SDS011;13106;50.808;5.670;2023-02-14T05:01:50;73.63;;;34.25;;
25125;SDS011;13106;50.808;5.670;2023-02-14T05:04:16;66.93;;;29.45;;
25125;SDS011;13106;50.808;5.670;2023-02-14T05:06:42;67.22;;;29.27;;
25125;SDS011;13106;50.808;5.670;2023-02-14T05:09:08;78.13;;;30.45;;
25125;SDS011;13106;50.808;5.670;2023-02-14T05:11:34;84.13;;;30.23;;
25125;SDS011;13106;50.808;5.670;2023-02-14T05:14:00;67.88;;;25.63;;
25125;SDS011;13106;50.808;5.670;2023-02-14T05:16:27;71.90;;;27.50;;
25125;SDS011;13106;50.808;5.670;2023-02-14T05:18:53;75.80;;;28.63;;
25125;SDS011;13106;50.808;5.670;2023-02-14T05:21:19;71.47;;;25.95;;
25125;SDS011;13106;50.808;5.670;2023-02-14T05:23:45;69.85;;;25.65;;
25125;SDS011;13106;50.808;5.670;2023-02-14T05:26:11;65.93;;;23.45;;
25125;SDS011;13106;50.808;5.670;2023-02-14T05:28:37;78.82;;;26.48;;
25125;SDS011;13106;50.808;5.670;2023-02-14T05:31:05;75.15;;;26.38;;
25125;SDS011;13106;50.808;5.670;2023-02-14T05:33:31;81.25;;;24.27;;
25125;SDS011;13106;50.808;5.670;2023-02-14T05:35:57;83.50;;;26.42;;
25125;SDS011;13106;50.808;5.670;2023-02-14T05:38:24;105.65;;;29.38;;
25125;SDS011;13106;50.808;5.670;2023-02-14T05:40:51;103.10;;;27.85;;
25125;SDS011;13106;50.808;5.670;2023-02-14T05:43:17;100.35;;;27.17;;
25125;SDS011;13106;50.808;5.670;2023-02-14T05:45:43;85.78;;;28.33;;
25125;SDS011;13106;50.808;5.670;2023-02-14T05:48:09;106.35;;;26.80;;
25125;SDS011;13106;50.808;5.670;2023-02-14T05:50:35;100.18;;;27.98;;
25125;SDS011;13106;50.808;5.670;2023-02-14T05:53:01;106.47;;;30.48;;
25125;SDS011;13106;50.808;5.670;2023-02-14T05:55:28;116.15;;;27.42;;
25125;SDS011;13106;50.808;5.670;2023-02-14T05:57:54;135.95;;;28.25;;
25125;SDS011;13106;50.808;5.670;2023-02-14T06:00:21;109.13;;;28.38;;
25125;SDS011;13106;50.808;5.670;2023-02-14T06:02:47;125.78;;;30.00;;
25125;SDS011;13106;50.808;5.670;2023-02-14T06:05:14;104.28;;;27.90;;
25125;SDS011;13106;50.808;5.670;2023-02-14T06:07:41;122.38;;;28.95;;
25125;SDS011;13106;50.808;5.670;2023-02-14T06:10:12;127.85;;;28.85;;
25125;SDS011;13106;50.808;5.670;2023-02-14T06:12:38;103.57;;;26.80;;
25125;SDS011;13106;50.808;5.670;2023-02-14T06:15:04;126.40;;;31.13;;
25125;SDS011;13106;50.808;5.670;2023-02-14T06:17:31;101.00;;;26.67;;
25125;SDS011;13106;50.808;5.670;2023-02-14T06:19:56;81.28;;;24.98;;
25125;SDS011;13106;50.808;5.670;2023-02-14T06:22:22;98.97;;;26.48;;
25125;SDS011;13106;50.808;5.670;2023-02-14T06:24:48;88.05;;;26.60;;
25125;SDS011;13106;50.808;5.670;2023-02-14T06:27:15;86.63;;;24.15;;
25125;SDS011;13106;50.808;5.670;2023-02-14T06:29:41;73.72;;;23.80;;
25125;SDS011;13106;50.808;5.670;2023-02-14T06:32:07;72.45;;;21.40;;
25125;SDS011;13106;50.808;5.670;2023-02-14T06:34:33;54.70;;;22.02;;
25125;SDS011;13106;50.808;5.670;2023-02-14T06:36:59;57.00;;;20.58;;
25125;SDS011;13106;50.808;5.670;2023-02-14T06:39:25;42.33;;;20.02;;
25125;SDS011;13106;50.808;5.670;2023-02-14T06:41:51;48.28;;;19.85;;
25125;SDS011;13106;50.808;5.670;2023-02-14T06:44:17;36.22;;;18.75;;
25125;SDS011;13106;50.808;5.670;2023-02-14T06:46:43;38.97;;;20.33;;
25125;SDS011;13106;50.808;5.670;2023-02-14T06:49:10;49.00;;;19.65;;
25125;SDS011;13106;50.808;5.670;2023-02-14T06:51:36;44.13;;;19.55;;
25125;SDS011;13106;50.808;5.670;2023-02-14T06:54:02;36.20;;;18.90;;
25125;SDS011;13106;50.808;5.670;2023-02-14T06:56:28;38.65;;;18.10;;
25125;SDS011;13106;50.808;5.670;2023-02-14T06:58:54;39.97;;;19.08;;
25125;SDS011;13106;50.808;5.670;2023-02-14T07:01:20;45.90;;;19.50;;
25125;SDS011;13106;50.808;5.670;2023-02-14T07:03:46;50.65;;;20.55;;
25125;SDS011;13106;50.808;5.670;2023-02-14T07:06:12;46.20;;;20.30;;
25125;SDS011;13106;50.808;5.670;2023-02-14T07:08:38;56.53;;;20.05;;
25125;SDS011;13106;50.808;5.670;2023-02-14T07:11:04;59.00;;;21.60;;
25125;SDS011;13106;50.808;5.670;2023-02-14T07:13:30;55.33;;;21.00;;
25125;SDS011;13106;50.808;5.670;2023-02-14T07:15:56;55.92;;;20.48;;
25125;SDS011;13106;50.808;5.670;2023-02-14T07:18:22;63.83;;;21.95;;
25125;SDS011;13106;50.808;5.670;2023-02-14T07:20:48;72.97;;;23.88;;
25125;SDS011;13106;50.808;5.670;2023-02-14T07:23:15;51.13;;;20.52;;
25125;SDS011;13106;50.808;5.670;2023-02-14T07:25:41;54.60;;;22.45;;
25125;SDS011;13106;50.808;5.670;2023-02-14T07:28:07;52.30;;;20.77;;
25125;SDS011;13106;50.808;5.670;2023-02-14T07:30:33;59.67;;;20.75;;
25125;SDS011;13106;50.808;5.670;2023-02-14T07:32:59;64.13;;;21.70;;
25125;SDS011;13106;50.808;5.670;2023-02-14T07:35:25;56.42;;;21.80;;
25125;SDS011;13106;50.808;5.670;2023-02-14T07:37:51;64.25;;;23.23;;
25125;SDS011;13106;50.808;5.670;2023-02-14T07:40:17;72.75;;;23.00;;
25125;SDS011;13106;50.808;5.670;2023-02-14T07:42:44;62.88;;;22.50;;
25125;SDS011;13106;50.808;5.670;2023-02-14T07:45:10;60.13;;;22.95;;
25125;SDS011;13106;50.808;5.670;2023-02-14T07:47:36;60.90;;;21.80;;
25125;SDS011;13106;50.808;5.670;2023-02-14T07:50:02;67.00;;;21.40;;
25125;SDS011;13106;50.808;5.670;2023-02-14T07:52:28;70.57;;;23.02;;
25125;SDS011;13106;50.808;5.670;2023-02-14T07:54:54;63.03;;;22.73;;
25125;SDS011;13106;50.808;5.670;2023-02-14T07:57:20;56.45;;;22.08;;
25125;SDS011;13106;50.808;5.670;2023-02-14T07:59:46;56.65;;;22.08;;
25125;SDS011;13106;50.808;5.670;2023-02-14T08:02:12;60.00;;;22.40;;
25125;SDS011;13106;50.808;5.670;2023-02-14T08:04:38;66.60;;;25.65;;
25125;SDS011;13106;50.808;5.670;2023-02-14T08:07:04;71.75;;;30.63;;
25125;SDS011;13106;50.808;5.670;2023-02-14T08:09:30;67.43;;;30.92;;
25125;SDS011;13106;50.808;5.670;2023-02-14T08:11:56;71.72;;;31.67;;
25125;SDS011;13106;50.808;5.670;2023-02-14T08:14:41;71.70;;;30.60;;
25125;SDS011;13106;50.808;5.670;2023-02-14T08:17:08;68.63;;;29.80;;
25125;SDS011;13106;50.808;5.670;2023-02-14T08:19:34;74.07;;;33.50;;
25125;SDS011;13106;50.808;5.670;2023-02-14T08:22:01;70.53;;;32.10;;
25125;SDS011;13106;50.808;5.670;2023-02-14T08:24:27;78.28;;;29.42;;
25125;SDS011;13106;50.808;5.670;2023-02-14T08:26:53;86.28;;;33.20;;
25125;SDS011;13106;50.808;5.670;2023-02-14T08:29:19;93.45;;;33.17;;
25125;SDS011;13106;50.808;5.670;2023-02-14T08:31:45;64.28;;;33.20;;
25125;SDS011;13106;50.808;5.670;2023-02-14T08:34:13;83.68;;;26.90;;
25125;SDS011;13106;50.808;5.670;2023-02-14T08:36:39;74.78;;;26.58;;
25125;SDS011;13106;50.808;5.670;2023-02-14T08:39:05;67.57;;;27.25;;
25125;SDS011;13106;50.808;5.670;2023-02-14T08:41:31;71.47;;;25.80;;
25125;SDS011;13106;50.808;5.670;2023-02-14T08:43:57;62.38;;;29.90;;
25125;SDS011;13106;50.808;5.670;2023-02-14T08:46:23;69.90;;;26.10;;
25125;SDS011;13106;50.808;5.670;2023-02-14T08:48:49;71.65;;;26.00;;
25125;SDS011;13106;50.808;5.670;2023-02-14T08:51:17;63.83;;;25.88;;
25125;SDS011;13106;50.808;5.670;2023-02-14T08:53:43;73.68;;;25.88;;
25125;SDS011;13106;50.808;5.670;2023-02-14T08:56:11;69.45;;;29.30;;
25125;SDS011;13106;50.808;5.670;2023-02-14T08:58:38;76.57;;;26.80;;
25125;SDS011;13106;50.808;5.670;2023-02-14T09:01:14;77.78;;;32.10;;
25125;SDS011;13106;50.808;5.670;2023-02-14T09:03:41;76.55;;;26.58;;
25125;SDS011;13106;50.808;5.670;2023-02-14T09:06:11;65.05;;;30.75;;
25125;SDS011;13106;50.808;5.670;2023-02-14T09:08:38;44.95;;;23.10;;
25125;SDS011;13106;50.808;5.670;2023-02-14T09:11:18;60.88;;;27.42;;
25125;SDS011;13106;50.808;5.670;2023-02-14T09:13:46;81.28;;;35.88;;
25125;SDS011;13106;50.808;5.670;2023-02-14T09:16:12;51.67;;;26.33;;
25125;SDS011;13106;50.808;5.670;2023-02-14T09:18:41;45.38;;;22.65;;
25125;SDS011;13106;50.808;5.670;2023-02-14T09:21:11;42.95;;;21.23;;
25125;SDS011;13106;50.808;5.670;2023-02-14T09:23:38;60.70;;;26.50;;
25125;SDS011;13106;50.808;5.670;2023-02-14T09:26:05;54.10;;;31.48;;
25125;SDS011;13106;50.808;5.670;2023-02-14T09:28:31;45.33;;;23.40;;
25125;SDS011;13106;50.808;5.670;2023-02-14T09:30:57;41.60;;;21.73;;
25125;SDS011;13106;50.808;5.670;2023-02-14T09:33:27;43.10;;;20.67;;
25125;SDS011;13106;50.808;5.670;2023-02-14T09:35:53;39.63;;;22.33;;
25125;SDS011;13106;50.808;5.670;2023-02-14T09:38:19;37.90;;;21.70;;
25125;SDS011;13106;50.808;5.670;2023-02-14T09:40:45;43.10;;;20.85;;
25125;SDS011;13106;50.808;5.670;2023-02-14T09:45:40;40.25;;;20.48;;
25125;SDS011;13106;50.808;5.670;2023-02-14T09:50:56;33.22;;;19.50;;
25125;SDS011;13106;50.808;5.670;2023-02-14T09:58:52;39.10;;;21.67;;
25125;SDS011;13106;50.808;5.670;2023-02-14T10:11:10;38.28;;;19.75;;
25125;SDS011;13106;50.808;5.670;2023-02-14T10:14:12;30.67;;;19.30;;
25125;SDS011;13106;50.808;5.670;2023-02-14T10:16:30;34.67;;;19.23;;
25125;SDS011;13106;50.808;5.670;2023-02-14T10:18:59;34.30;;;19.00;;
25125;SDS011;13106;50.808;5.670;2023-02-14T10:21:30;34.67;;;19.70;;
25125;SDS011;13106;50.808;5.670;2023-02-14T10:23:59;38.13;;;18.95;;
25125;SDS011;13106;50.808;5.670;2023-02-14T10:26:29;34.63;;;18.88;;
25125;SDS011;13106;50.808;5.670;2023-02-14T10:28:56;34.60;;;19.08;;
25125;SDS011;13106;50.808;5.670;2023-02-14T10:31:26;30.95;;;16.38;;
25125;SDS011;13106;50.808;5.670;2023-02-14T10:36:55;27.63;;;17.08;;
25125;SDS011;13106;50.808;5.670;2023-02-14T10:55:32;27.75;;;16.67;;
25125;SDS011;13106;50.808;5.670;2023-02-14T10:58:02;25.30;;;17.42;;
25125;SDS011;13106;50.808;5.670;2023-02-14T11:00:30;25.65;;;16.98;;
25125;SDS011;13106;50.808;5.670;2023-02-14T11:02:58;24.23;;;16.15;;
25125;SDS011;13106;50.808;5.670;2023-02-14T11:05:45;25.45;;;16.35;;
25125;SDS011;13106;50.808;5.670;2023-02-14T11:10:37;26.02;;;17.73;;
25125;SDS011;13106;50.808;5.670;2023-02-14T11:13:11;27.73;;;17.27;;
25125;SDS011;13106;50.808;5.670;2023-02-14T11:15:50;27.85;;;17.60;;
25125;SDS011;13106;50.808;5.670;2023-02-14T11:18:26;25.55;;;16.77;;
25125;SDS011;13106;50.808;5.670;2023-02-14T11:21:04;28.48;;;18.20;;
25125;SDS011;13106;50.808;5.670;2023-02-14T11:23:31;24.70;;;16.83;;
25125;SDS011;13106;50.808;5.670;2023-02-14T11:25:58;26.08;;;16.65;;
25125;SDS011;13106;50.808;5.670;2023-02-14T11:28:24;25.40;;;15.85;;
25125;SDS011;13106;50.808;5.670;2023-02-14T11:30:51;25.25;;;15.88;;
25125;SDS011;13106;50.808;5.670;2023-02-14T11:35:55;24.25;;;17.02;;
25125;SDS011;13106;50.808;5.670;2023-02-14T11:40:54;27.67;;;18.08;;
25125;SDS011;13106;50.808;5.670;2023-02-14T11:43:31;25.42;;;16.17;;
25125;SDS011;13106;50.808;5.670;2023-02-14T11:46:10;25.38;;;16.95;;
25125;SDS011;13106;50.808;5.670;2023-02-14T11:48:38;26.83;;;16.83;;
25125;SDS011;13106;50.808;5.670;2023-02-14T11:54:03;29.25;;;17.25;;
25125;SDS011;13106;50.808;5.670;2023-02-14T11:56:41;28.38;;;17.05;;
25125;SDS011;13106;50.808;5.670;2023-02-14T11:59:09;27.33;;;17.63;;
25125;SDS011;13106;50.808;5.670;2023-02-14T12:01:37;25.90;;;15.88;;
25125;SDS011;13106;50.808;5.670;2023-02-14T12:04:10;23.55;;;15.27;;
25125;SDS011;13106;50.808;5.670;2023-02-14T12:06:38;23.13;;;15.32;;
25125;SDS011;13106;50.808;5.670;2023-02-14T12:11:56;26.80;;;15.23;;
25125;SDS011;13106;50.808;5.670;2023-02-14T12:14:23;25.95;;;15.32;;
25125;SDS011;13106;50.808;5.670;2023-02-14T12:17:34;24.92;;;15.60;;
25125;SDS011;13106;50.808;5.670;2023-02-14T12:19:41;25.13;;;15.25;;
25125;SDS011;13106;50.808;5.670;2023-02-14T12:22:12;25.42;;;15.55;;
25125;SDS011;13106;50.808;5.670;2023-02-14T12:24:48;22.40;;;14.35;;
25125;SDS011;13106;50.808;5.670;2023-02-14T12:27:18;21.80;;;15.00;;
25125;SDS011;13106;50.808;5.670;2023-02-14T12:29:51;30.23;;;15.77;;
25125;SDS011;13106;50.808;5.670;2023-02-14T12:34:46;22.83;;;15.25;;
25125;SDS011;13106;50.808;5.670;2023-02-14T12:37:46;29.25;;;15.98;;
25125;SDS011;13106;50.808;5.670;2023-02-14T12:45:20;22.67;;;14.73;;
25125;SDS011;13106;50.808;5.670;2023-02-14T12:53:16;25.58;;;15.05;;
25125;SDS011;13106;50.808;5.670;2023-02-14T12:55:51;24.67;;;15.18;;
25125;SDS011;13106;50.808;5.670;2023-02-14T12:58:22;26.15;;;15.13;;
25125;SDS011;13106;50.808;5.670;2023-02-14T13:03:36;22.63;;;15.40;;
25125;SDS011;13106;50.808;5.670;2023-02-14T13:06:08;25.48;;;15.07;;
25125;SDS011;13106;50.808;5.670;2023-02-14T13:08:45;22.58;;;14.82;;
25125;SDS011;13106;50.808;5.670;2023-02-14T13:11:27;24.95;;;14.85;;
25125;SDS011;13106;50.808;5.670;2023-02-14T13:14:05;24.42;;;14.73;;
25125;SDS011;13106;50.808;5.670;2023-02-14T13:16:50;23.85;;;15.07;;
25125;SDS011;13106;50.808;5.670;2023-02-14T13:21:45;24.85;;;14.88;;
25125;SDS011;13106;50.808;5.670;2023-02-14T13:26:40;26.45;;;14.95;;
25125;SDS011;13106;50.808;5.670;2023-02-14T13:29:15;24.35;;;14.93;;
25125;SDS011;13106;50.808;5.670;2023-02-14T13:31:42;25.88;;;14.25;;
25125;SDS011;13106;50.808;5.670;2023-02-14T13:36:44;23.48;;;14.93;;
25125;SDS011;13106;50.808;5.670;2023-02-14T13:39:12;24.90;;;16.45;;
25125;SDS011;13106;50.808;5.670;2023-02-14T13:41:43;23.98;;;15.80;;
25125;SDS011;13106;50.808;5.670;2023-02-14T13:44:09;34.50;;;16.38;;
25125;SDS011;13106;50.808;5.670;2023-02-14T13:54:27;26.00;;;15.40;;
25125;SDS011;13106;50.808;5.670;2023-02-14T13:56:54;28.08;;;15.50;;
25125;SDS011;13106;50.808;5.670;2023-02-14T13:59:31;23.85;;;15.30;;
25125;SDS011;13106;50.808;5.670;2023-02-14T14:04:46;23.92;;;14.40;;
25125;SDS011;13106;50.808;5.670;2023-02-14T14:07:16;24.10;;;14.90;;
25125;SDS011;13106;50.808;5.670;2023-02-14T14:19:58;26.15;;;14.32;;
25125;SDS011;13106;50.808;5.670;2023-02-14T14:22:25;27.83;;;15.13;;
25125;SDS011;13106;50.808;5.670;2023-02-14T14:27:34;27.98;;;15.07;;
25125;SDS011;13106;50.808;5.670;2023-02-14T14:30:05;27.88;;;14.75;;
25125;SDS011;13106;50.808;5.670;2023-02-14T14:32:36;26.35;;;14.73;;
25125;SDS011;13106;50.808;5.670;2023-02-14T14:37:53;23.10;;;14.07;;
25125;SDS011;13106;50.808;5.670;2023-02-14T14:40:24;25.70;;;14.77;;
25125;SDS011;13106;50.808;5.670;2023-02-14T14:42:50;25.77;;;14.00;;
25125;SDS011;13106;50.808;5.670;2023-02-14T14:45:24;24.63;;;15.30;;
25125;SDS011;13106;50.808;5.670;2023-02-14T14:47:52;24.40;;;15.68;;
25125;SDS011;13106;50.808;5.670;2023-02-14T14:50:21;23.10;;;14.65;;
25125;SDS011;13106;50.808;5.670;2023-02-14T14:52:48;27.58;;;15.48;;
25125;SDS011;13106;50.808;5.670;2023-02-14T14:55:24;24.30;;;14.70;;
25125;SDS011;13106;50.808;5.670;2023-02-14T14:57:52;29.23;;;14.85;;
25125;SDS011;13106;50.808;5.670;2023-02-14T15:02:54;27.17;;;15.43;;
25125;SDS011;13106;50.808;5.670;2023-02-14T15:05:28;30.95;;;15.57;;
25125;SDS011;13106;50.808;5.670;2023-02-14T15:07:54;28.60;;;15.43;;
25125;SDS011;13106;50.808;5.670;2023-02-14T15:10:30;29.17;;;15.38;;
25125;SDS011;13106;50.808;5.670;2023-02-14T15:12:57;26.45;;;15.45;;
25125;SDS011;13106;50.808;5.670;2023-02-14T15:15:48;33.08;;;15.95;;
25125;SDS011;13106;50.808;5.670;2023-02-14T15:18:16;27.60;;;16.17;;
25125;SDS011;13106;50.808;5.670;2023-02-14T15:20:46;31.27;;;18.67;;
25125;SDS011;13106;50.808;5.670;2023-02-14T15:23:15;28.38;;;16.98;;
25125;SDS011;13106;50.808;5.670;2023-02-14T15:25:42;28.95;;;17.02;;
25125;SDS011;13106;50.808;5.670;2023-02-14T15:28:12;27.65;;;15.57;;
25125;SDS011;13106;50.808;5.670;2023-02-14T15:30:41;26.17;;;15.77;;
25125;SDS011;13106;50.808;5.670;2023-02-14T15:33:09;26.00;;;15.38;;
25125;SDS011;13106;50.808;5.670;2023-02-14T15:35:35;29.73;;;16.17;;
25125;SDS011;13106;50.808;5.670;2023-02-14T15:38:03;30.35;;;16.77;;
25125;SDS011;13106;50.808;5.670;2023-02-14T15:40:30;28.27;;;16.15;;
25125;SDS011;13106;50.808;5.670;2023-02-14T15:45:38;29.63;;;15.45;;
25125;SDS011;13106;50.808;5.670;2023-02-14T15:48:05;26.38;;;15.18;;
25125;SDS011;13106;50.808;5.670;2023-02-14T15:50:41;28.02;;;15.43;;
25125;SDS011;13106;50.808;5.670;2023-02-14T15:55:48;25.98;;;15.32;;
25125;SDS011;13106;50.808;5.670;2023-02-14T15:58:19;33.53;;;17.55;;
25125;SDS011;13106;50.808;5.670;2023-02-14T16:00:45;30.27;;;16.40;;
25125;SDS011;13106;50.808;5.670;2023-02-14T16:03:19;26.58;;;15.32;;
25125;SDS011;13106;50.808;5.670;2023-02-14T16:05:46;32.65;;;16.08;;
25125;SDS011;13106;50.808;5.670;2023-02-14T16:10:59;35.00;;;16.55;;
25125;SDS011;13106;50.808;5.670;2023-02-14T16:13:32;34.40;;;15.80;;
25125;SDS011;13106;50.808;5.670;2023-02-14T16:18:32;30.88;;;16.23;;
25125;SDS011;13106;50.808;5.670;2023-02-14T16:23:37;29.02;;;15.60;;
25125;SDS011;13106;50.808;5.670;2023-02-14T16:26:06;32.88;;;17.20;;
25125;SDS011;13106;50.808;5.670;2023-02-14T16:28:32;34.88;;;16.58;;
25125;SDS011;13106;50.808;5.670;2023-02-14T16:31:01;29.27;;;15.13;;
25125;SDS011;13106;50.808;5.670;2023-02-14T16:33:29;33.60;;;16.33;;
25125;SDS011;13106;50.808;5.670;2023-02-14T16:36:00;30.17;;;16.23;;
25125;SDS011;13106;50.808;5.670;2023-02-14T16:38:30;36.85;;;17.25;;
25125;SDS011;13106;50.808;5.670;2023-02-14T16:40:57;34.85;;;16.73;;
25125;SDS011;13106;50.808;5.670;2023-02-14T16:43:23;32.85;;;17.15;;
25125;SDS011;13106;50.808;5.670;2023-02-14T16:45:49;37.10;;;18.23;;
25125;SDS011;13106;50.808;5.670;2023-02-14T16:48:16;30.42;;;16.70;;
25125;SDS011;13106;50.808;5.670;2023-02-14T16:50:43;38.17;;;17.98;;
25125;SDS011;13106;50.808;5.670;2023-02-14T16:53:43;35.45;;;19.15;;
25125;SDS011;13106;50.808;5.670;2023-02-14T16:56:02;31.42;;;18.05;;
25125;SDS011;13106;50.808;5.670;2023-02-14T16:58:31;34.58;;;19.08;;
25125;SDS011;13106;50.808;5.670;2023-02-14T17:00:59;33.92;;;19.00;;
25125;SDS011;13106;50.808;5.670;2023-02-14T17:03:25;36.95;;;19.08;;
25125;SDS011;13106;50.808;5.670;2023-02-14T17:05:52;38.90;;;18.38;;
25125;SDS011;13106;50.808;5.670;2023-02-14T17:08:19;32.35;;;17.83;;
25125;SDS011;13106;50.808;5.670;2023-02-14T17:10:45;33.60;;;20.00;;